Airfield :
LOGIN :

Register | Disclaimer

   EN    FR    IT 

 










Legend :    VFR   Marginal VFR   IFR   Intensive IFR   Very Intensive IFR
Visi :
Ceiling :
>= 8 km
>= 3000ft
5 to 8 km
1000 to 3000 ft
1500m to 5 km
500 to 1000 ft
800 to 1500m
200 to 500 ft
< 800m
< 200 ft
Symbols :   Thunderstorms  Fog  Heavy snow  Heavy precipitations  Wind > 20 kt
SIGMETs :     Misc.  Thunderstorms  Icing  Turbulence  Mountain Waves  Volcanic Ashes







- Airport Elevation : 466 ft


LHPA - Pápa

CURRENT METAR :
  • 120715Z 30002KT 8000 BKN007 BKN020 01/00 Q1018 NOSIG RMK YLO

EXPIRED METARs :
  • 120645Z 15002KT 8000 BKN007 OVC020 01/00 Q1018 NOSIG RMK YLO
  • 120615Z 00000KT 8000 SCT005 OVC020 00/00 Q1018 NOSIG RMK WHT
  • 120545Z 23002KT 8000 SCT005 OVC030 00/M00 Q1018 NOSIG RMK BLU
  • 120515Z 00000KT 8000 SCT005 OVC030 00/M00 Q1018 NOSIG RMK BLU
  • 120445Z 28004KT 8000 SCT004 OVC050 00/M00 Q1017 NOSIG RMK BLU

TAF TAF LHPA
Valid from the 12 at 06:00 until the 13 at 06:00 UTC


120515Z 1206/1306 29007KT 9999 BKN040
TEMPO 1206/1212 5000 -SN BR BKN015 OVC025
PROB30
TEMPO 1206/1210 1500 SN BR BKN005 OVC020
BECMG 1221/1224 VRB03KT
TEMPO 1300/1306 5000 BR BKN010
No reported NOTAMs for that airfield.



MET'MAP, your aeronautical weather chart ! - Copyright ORBIFLY December 2007 - Disclaimer

ORBIFLY MET'MAP TEAM :

Programming & Development : Alexandra Zaïnal
Concept & Development : Baudouin d'Aumeries
Co-Development & Prog : Marc-Olivier Méhu
Technical & hardware support : Manuel Goepfert

Contact : metmap@orbifly.com




SOURCES & CREDITS :

   NOAA